createdAt,value
2023-05-06T00:01:39.676Z,20.20
2023-05-06T00:04:07.467Z,20.20
2023-05-06T00:06:34.553Z,20.10
2023-05-06T00:09:01.442Z,20.20
2023-05-06T00:11:29.498Z,20.10
2023-05-06T00:13:56.479Z,20.10
2023-05-06T00:16:23.649Z,20.10
2023-05-06T00:18:50.773Z,20.10
2023-05-06T00:21:17.687Z,20.10
2023-05-06T00:23:46.168Z,20.10
2023-05-06T00:26:13.020Z,20.10
2023-05-06T00:28:39.910Z,20.10
2023-05-06T00:31:07.073Z,20.10
2023-05-06T00:33:33.966Z,20.10
2023-05-06T00:36:00.833Z,20.10
2023-05-06T00:38:27.796Z,20.10
2023-05-06T00:40:54.648Z,20.10
2023-05-06T00:43:21.642Z,20.10
2023-05-06T00:45:48.923Z,20.10
2023-05-06T00:48:16.892Z,20.10
2023-05-06T00:50:44.700Z,20.10
2023-05-06T00:53:13.030Z,20.10
2023-05-06T00:55:40.930Z,20.10
2023-05-06T00:58:08.479Z,20.10
2023-05-06T01:00:36.918Z,20.10
2023-05-06T01:03:06.248Z,20.10
2023-05-06T01:05:44.593Z,20.10
2023-05-06T01:08:21.677Z,20.10
2023-05-06T01:10:57.768Z,20.10
2023-05-06T01:13:47.752Z,20.10
2023-05-06T01:16:18.130Z,20.10
2023-05-06T01:18:45.493Z,20.10
2023-05-06T01:21:14.696Z,20.10
2023-05-06T01:24:11.090Z,20.10
2023-05-06T01:26:38.165Z,20.10
2023-05-06T01:29:05.146Z,20.10
2023-05-06T01:31:49.469Z,20.10
2023-05-06T01:34:28.013Z,20.10
2023-05-06T01:37:22.100Z,20.10
2023-05-06T01:39:50.162Z,20.10
2023-05-06T01:42:18.038Z,20.10
2023-05-06T01:44:45.269Z,20.10
2023-05-06T01:47:13.697Z,20.10
2023-05-06T01:49:40.661Z,20.10
2023-05-06T01:52:07.740Z,20.10
2023-05-06T01:54:34.733Z,20.10
2023-05-06T01:57:02.217Z,20.10
2023-05-06T01:59:29.726Z,20.00
2023-05-06T02:01:56.967Z,20.10
2023-05-06T02:04:23.877Z,20.10
2023-05-06T02:06:50.848Z,20.00
2023-05-06T02:09:17.714Z,20.00
2023-05-06T02:11:44.602Z,20.00
2023-05-06T02:14:11.513Z,20.00
2023-05-06T02:16:38.461Z,20.00
2023-05-06T02:19:06.440Z,20.00
2023-05-06T02:21:33.416Z,20.00
2023-05-06T02:24:00.294Z,20.10
2023-05-06T02:26:27.174Z,20.00
2023-05-06T02:28:54.058Z,20.00
2023-05-06T02:31:21.021Z,20.00
2023-05-06T02:33:47.970Z,20.00
2023-05-06T02:36:14.933Z,20.00
2023-05-06T02:38:41.954Z,20.00
2023-05-06T02:41:10.821Z,20.00
2023-05-06T02:43:37.716Z,20.00
2023-05-06T02:46:04.698Z,20.00
2023-05-06T02:48:31.589Z,20.00
2023-05-06T02:50:58.471Z,20.00
2023-05-06T02:53:25.649Z,20.00
2023-05-06T02:55:52.498Z,20.00
2023-05-06T02:58:20.659Z,20.00
2023-05-06T03:00:47.641Z,20.00
2023-05-06T03:03:17.944Z,20.00
2023-05-06T03:05:44.998Z,20.00
2023-05-06T03:08:11.895Z,20.00
2023-05-06T03:10:38.949Z,20.00
2023-05-06T03:13:05.937Z,20.00
2023-05-06T03:15:33.044Z,20.00
2023-05-06T03:18:00.235Z,20.00
2023-05-06T03:20:28.872Z,20.00
2023-05-06T03:22:56.512Z,20.00
2023-05-06T03:25:23.371Z,20.00
2023-05-06T03:27:50.319Z,20.00
2023-05-06T03:30:17.268Z,20.00
2023-05-06T03:32:44.916Z,20.00
2023-05-06T03:35:12.096Z,20.00
2023-05-06T03:37:39.331Z,20.00
2023-05-06T03:40:07.680Z,20.00
2023-05-06T03:42:34.642Z,20.00
2023-05-06T03:45:01.544Z,20.00
2023-05-06T03:47:28.485Z,20.00
2023-05-06T03:49:55.334Z,20.00
2023-05-06T03:52:22.182Z,20.00
2023-05-06T03:54:49.763Z,20.00
2023-05-06T03:57:16.973Z,20.00
2023-05-06T03:59:43.832Z,20.00
2023-05-06T04:02:11.819Z,20.00
2023-05-06T04:04:38.719Z,20.00
2023-05-06T04:07:05.647Z,20.00
2023-05-06T04:09:34.129Z,20.00
2023-05-06T04:12:02.935Z,20.00
2023-05-06T04:14:29.903Z,20.00
2023-05-06T04:16:56.748Z,20.00
2023-05-06T04:19:23.703Z,20.00
2023-05-06T04:21:50.900Z,20.00
2023-05-06T04:24:17.832Z,20.00
2023-05-06T04:26:44.830Z,20.00
2023-05-06T04:29:11.798Z,20.00
2023-05-06T04:31:39.152Z,20.00
2023-05-06T04:34:06.067Z,20.00
2023-05-06T04:36:32.968Z,20.00
2023-05-06T04:38:59.870Z,20.00
2023-05-06T04:41:26.920Z,20.00
2023-05-06T04:43:53.781Z,20.00
2023-05-06T04:46:21.087Z,20.10
2023-05-06T04:48:48.204Z,20.10
2023-05-06T04:51:15.268Z,20.10
2023-05-06T04:53:42.147Z,20.10
2023-05-06T04:56:09.261Z,20.10
2023-05-06T04:58:36.220Z,20.10
2023-05-06T05:01:05.572Z,20.10
2023-05-06T05:03:32.718Z,20.20
2023-05-06T05:06:00.085Z,20.20
2023-05-06T05:08:28.378Z,20.20
2023-05-06T05:10:55.277Z,20.30
2023-05-06T05:13:22.191Z,20.30
2023-05-06T05:15:49.115Z,20.40
2023-05-06T05:18:16.013Z,20.40
2023-05-06T05:20:43.102Z,20.40
2023-05-06T05:23:10.004Z,20.40
2023-05-06T05:25:36.860Z,20.50
2023-05-06T05:28:04.183Z,20.50
2023-05-06T05:30:31.026Z,20.50
2023-05-06T05:32:58.027Z,20.50
2023-05-06T05:35:25.033Z,20.50
2023-05-06T05:37:51.943Z,20.50
2023-05-06T05:40:18.867Z,20.60
2023-05-06T05:42:46.081Z,20.60
2023-05-06T05:45:13.004Z,20.60
2023-05-06T05:47:40.102Z,20.60
2023-05-06T05:50:08.880Z,20.60
2023-05-06T05:52:35.764Z,20.70
2023-05-06T05:55:02.628Z,20.70
2023-05-06T05:57:29.690Z,20.70
2023-05-06T05:59:56.660Z,20.80
2023-05-06T06:02:23.837Z,20.70
2023-05-06T06:04:50.955Z,20.80
2023-05-06T06:07:18.025Z,20.80
2023-05-06T06:09:46.853Z,20.80
2023-05-06T06:12:13.756Z,20.80
2023-05-06T06:14:40.699Z,20.80
2023-05-06T06:17:08.913Z,20.80
2023-05-06T06:19:35.770Z,20.80
2023-05-06T06:22:02.614Z,20.90
2023-05-06T06:24:29.582Z,20.80
2023-05-06T06:26:56.602Z,20.90
2023-05-06T06:29:23.450Z,20.90
2023-05-06T06:31:50.423Z,20.90
2023-05-06T06:34:17.500Z,20.90
2023-05-06T06:36:45.435Z,20.90
2023-05-06T06:39:13.069Z,20.90
2023-05-06T06:41:40.199Z,20.90
2023-05-06T06:44:07.132Z,20.90
2023-05-06T06:46:34.428Z,20.90
2023-05-06T06:49:04.640Z,20.90
2023-05-06T06:51:32.073Z,20.90
2023-05-06T06:53:58.925Z,21.00
2023-05-06T06:56:26.064Z,21.00
2023-05-06T06:58:53.577Z,21.00
2023-05-06T07:01:20.678Z,21.00
2023-05-06T07:03:47.750Z,21.00
2023-05-06T07:06:14.625Z,21.00
2023-05-06T07:08:41.691Z,21.00
2023-05-06T07:11:08.541Z,21.00
2023-05-06T07:13:35.451Z,21.00
2023-05-06T07:16:02.309Z,21.00
2023-05-06T07:18:29.235Z,21.00
2023-05-06T07:20:56.393Z,21.00
2023-05-06T07:23:23.272Z,21.00
2023-05-06T07:25:50.170Z,21.00
2023-05-06T07:28:17.108Z,21.00
2023-05-06T07:30:45.469Z,21.00
2023-05-06T07:33:12.503Z,21.00
2023-05-06T07:35:39.392Z,21.00
2023-05-06T07:38:06.234Z,21.00
2023-05-06T07:40:33.374Z,21.00
2023-05-06T07:43:01.290Z,21.00
2023-05-06T07:45:29.821Z,21.00
2023-05-06T07:47:56.720Z,21.00
2023-05-06T07:50:23.629Z,21.00
2023-05-06T07:52:50.654Z,21.00
2023-05-06T07:55:17.609Z,21.00
2023-05-06T07:57:46.186Z,21.10
2023-05-06T08:00:14.385Z,21.10
2023-05-06T08:02:44.632Z,21.10
2023-05-06T08:05:11.899Z,21.00
2023-05-06T08:07:41.371Z,21.10
2023-05-06T08:10:09.804Z,21.10
2023-05-06T08:12:37.719Z,21.10
2023-05-06T08:15:06.416Z,21.10
2023-05-06T08:17:33.308Z,21.10
2023-05-06T08:20:00.300Z,21.00
2023-05-06T08:22:27.223Z,21.10
2023-05-06T08:24:54.895Z,21.10
2023-05-06T08:27:21.876Z,21.10
2023-05-06T08:29:48.819Z,21.10
2023-05-06T08:32:15.812Z,21.00
2023-05-06T08:34:42.707Z,21.00
2023-05-06T08:37:09.695Z,21.00
2023-05-06T08:39:36.793Z,21.00
2023-05-06T08:42:05.271Z,21.00
2023-05-06T08:44:33.761Z,21.00
2023-05-06T08:47:00.954Z,21.00
2023-05-06T08:49:28.702Z,21.00
2023-05-06T08:51:57.657Z,21.00
2023-05-06T08:54:27.618Z,21.00
2023-05-06T08:56:57.682Z,21.00
2023-05-06T08:59:26.862Z,21.00
2023-05-06T09:01:53.743Z,21.00
2023-05-06T09:04:20.983Z,21.00
2023-05-06T09:06:49.125Z,20.90
2023-05-06T09:09:16.001Z,21.00
2023-05-06T09:11:42.894Z,21.00
2023-05-06T09:14:14.950Z,21.00
2023-05-06T09:16:53.203Z,21.00
2023-05-06T09:19:22.425Z,21.00
2023-05-06T09:21:50.746Z,20.90
2023-05-06T09:24:18.010Z,20.90
2023-05-06T09:26:46.816Z,20.80
2023-05-06T09:29:14.046Z,20.70
2023-05-06T09:31:46.794Z,20.60
2023-05-06T09:34:14.685Z,20.50
2023-05-06T09:36:41.791Z,20.50
2023-05-06T09:39:10.244Z,20.50
2023-05-06T09:41:37.556Z,20.50
2023-05-06T09:44:04.758Z,20.50
2023-05-06T09:46:31.947Z,20.50
2023-05-06T09:48:59.444Z,20.50
2023-05-06T09:51:28.651Z,20.50
2023-05-06T09:53:57.944Z,20.50
2023-05-06T09:56:26.128Z,20.50
2023-05-06T09:58:54.562Z,20.50
2023-05-06T10:01:35.428Z,20.50
2023-05-06T10:04:09.076Z,20.50
2023-05-06T10:06:39.422Z,20.50
2023-05-06T10:09:08.289Z,20.60
2023-05-06T10:11:35.999Z,20.50
2023-05-06T10:14:04.336Z,20.50
2023-05-06T10:16:33.301Z,20.50
2023-05-06T10:19:00.855Z,20.50
2023-05-06T10:21:32.521Z,20.50
2023-05-06T10:24:09.144Z,20.50
2023-05-06T10:26:37.678Z,20.50
2023-05-06T10:29:10.354Z,20.50
2023-05-06T10:31:49.136Z,20.50
2023-05-06T10:34:19.611Z,20.50
2023-05-06T10:36:47.917Z,20.50
2023-05-06T10:39:15.176Z,20.50
2023-05-06T10:41:42.129Z,20.50
2023-05-06T10:44:10.191Z,20.50
2023-05-06T10:47:00.652Z,20.50
2023-05-06T10:49:27.979Z,20.50
2023-05-06T10:52:15.012Z,20.50
2023-05-06T10:54:51.934Z,20.50
2023-05-06T10:57:22.373Z,20.50
2023-05-06T10:59:49.298Z,20.50
2023-05-06T11:02:20.107Z,20.50
2023-05-06T11:04:53.139Z,20.50
2023-05-06T11:07:24.563Z,20.50
2023-05-06T11:09:58.698Z,20.40
2023-05-06T11:12:52.611Z,20.40
2023-05-06T11:15:40.573Z,20.40
2023-05-06T11:18:29.305Z,20.40
2023-05-06T11:21:05.104Z,20.40
2023-05-06T11:24:00.222Z,20.40
2023-05-06T11:26:28.314Z,20.40
2023-05-06T11:28:55.901Z,20.40
2023-05-06T11:31:23.129Z,20.40
2023-05-06T11:33:52.476Z,20.40
2023-05-06T11:36:21.289Z,20.40
2023-05-06T11:38:51.294Z,20.40
2023-05-06T11:41:18.878Z,20.40
2023-05-06T11:43:53.491Z,20.40
2023-05-06T11:46:22.209Z,20.40
2023-05-06T11:48:50.481Z,20.40
2023-05-06T11:51:22.720Z,20.40
2023-05-06T11:53:49.629Z,20.40
2023-05-06T11:56:16.600Z,20.40
2023-05-06T11:58:44.095Z,20.40
2023-05-06T12:01:11.021Z,20.40
2023-05-06T12:03:38.103Z,20.40
2023-05-06T12:06:05.188Z,20.40
2023-05-06T12:08:37.037Z,20.40
2023-05-06T12:11:09.189Z,20.40
2023-05-06T12:13:36.970Z,20.40
2023-05-06T12:16:05.212Z,20.40
2023-05-06T12:18:32.763Z,20.40
2023-05-06T12:21:06.061Z,20.40
2023-05-06T12:23:34.118Z,20.40
2023-05-06T12:26:09.268Z,20.40
2023-05-06T12:28:37.318Z,20.40
2023-05-06T12:31:20.913Z,20.30
2023-05-06T12:33:49.913Z,20.30
2023-05-06T12:36:17.945Z,20.30
2023-05-06T12:39:01.695Z,20.30
2023-05-06T12:41:46.163Z,20.30
2023-05-06T12:44:38.946Z,20.30
2023-05-06T12:47:19.079Z,20.30
2023-05-06T12:49:50.376Z,20.30
2023-05-06T12:52:19.116Z,20.30
2023-05-06T12:54:46.346Z,20.30
2023-05-06T12:57:13.474Z,20.30
2023-05-06T12:59:40.734Z,20.30
2023-05-06T13:02:07.764Z,20.30
2023-05-06T13:04:34.690Z,20.30
2023-05-06T13:07:01.668Z,20.30
2023-05-06T13:09:28.677Z,20.30
2023-05-06T13:11:55.750Z,20.30
2023-05-06T13:14:23.292Z,20.30
2023-05-06T13:16:50.390Z,20.30
2023-05-06T13:19:31.607Z,20.30
2023-05-06T13:22:00.507Z,20.30
2023-05-06T13:24:27.780Z,20.30
2023-05-06T13:26:56.424Z,20.30
2023-05-06T13:29:23.889Z,20.30
2023-05-06T13:31:51.599Z,20.30
2023-05-06T13:34:18.877Z,20.20
2023-05-06T13:36:46.871Z,20.20
2023-05-06T13:39:13.968Z,20.20
2023-05-06T13:41:40.869Z,20.30
2023-05-06T13:44:28.368Z,20.20
2023-05-06T13:47:09.284Z,20.20
2023-05-06T13:49:39.415Z,20.20
2023-05-06T13:52:08.289Z,20.20
2023-05-06T13:54:38.446Z,20.20
2023-05-06T13:57:20.230Z,20.20
2023-05-06T13:59:48.465Z,20.20
2023-05-06T14:02:17.433Z,20.20
2023-05-06T14:04:47.981Z,20.20
2023-05-06T14:07:21.490Z,20.20
2023-05-06T14:09:49.177Z,20.20
2023-05-06T14:12:23.928Z,20.20
2023-05-06T14:14:50.804Z,20.20
2023-05-06T14:17:17.665Z,20.20
2023-05-06T14:19:44.575Z,20.20
2023-05-06T14:22:12.667Z,20.20
2023-05-06T14:24:39.525Z,20.20
2023-05-06T14:27:07.650Z,20.20
2023-05-06T14:29:35.928Z,20.20
2023-05-06T14:32:03.104Z,20.10
2023-05-06T14:34:34.287Z,20.20
2023-05-06T14:37:01.201Z,20.10
2023-05-06T14:39:28.077Z,20.20
2023-05-06T14:41:55.154Z,20.10
2023-05-06T14:44:22.335Z,20.10
2023-05-06T14:46:50.372Z,20.10
2023-05-06T14:49:17.228Z,20.10
2023-05-06T14:51:45.884Z,20.10
2023-05-06T14:54:14.130Z,20.10
2023-05-06T14:56:41.471Z,20.10
2023-05-06T14:59:08.301Z,20.10
2023-05-06T15:01:35.935Z,20.10
2023-05-06T15:04:02.883Z,20.10
2023-05-06T15:06:29.811Z,20.10
2023-05-06T15:08:56.787Z,20.10
2023-05-06T15:11:23.684Z,20.10
2023-05-06T15:13:51.035Z,20.10
2023-05-06T15:16:17.971Z,20.10
2023-05-06T15:18:47.366Z,20.10
2023-05-06T15:21:14.787Z,20.10
2023-05-06T15:23:45.379Z,20.10
2023-05-06T15:26:12.699Z,20.10
2023-05-06T15:28:47.204Z,20.10
2023-05-06T15:31:14.123Z,20.00
2023-05-06T15:33:41.016Z,20.00
2023-05-06T15:36:08.267Z,20.00
2023-05-06T15:38:59.102Z,20.00
2023-05-06T15:41:32.335Z,20.00
2023-05-06T15:44:01.262Z,20.00
2023-05-06T15:46:29.539Z,20.00
2023-05-06T15:49:15.817Z,20.00
2023-05-06T15:51:44.418Z,20.00
2023-05-06T15:54:11.416Z,20.00
2023-05-06T15:56:41.417Z,20.00
2023-05-06T15:59:08.912Z,20.00
2023-05-06T16:02:16.657Z,20.00
2023-05-06T16:04:25.935Z,20.00
2023-05-06T16:06:53.191Z,20.00
2023-05-06T16:09:21.635Z,20.00
2023-05-06T16:11:49.646Z,20.00
2023-05-06T16:14:16.661Z,20.00
2023-05-06T16:16:43.714Z,20.00
2023-05-06T16:19:10.732Z,20.00
2023-05-06T16:21:37.631Z,20.00
2023-05-06T16:24:04.667Z,20.00
2023-05-06T16:26:31.744Z,19.90
2023-05-06T16:28:59.607Z,19.90
2023-05-06T16:31:27.568Z,19.90
2023-05-06T16:33:56.989Z,20.00
2023-05-06T16:36:24.009Z,19.90
2023-05-06T16:38:51.969Z,19.90
2023-05-06T16:41:19.832Z,19.90
2023-05-06T16:43:46.828Z,19.90
2023-05-06T16:46:13.747Z,19.90
2023-05-06T16:48:40.931Z,19.90
2023-05-06T16:51:07.978Z,19.90
2023-05-06T16:53:42.530Z,19.90
2023-05-06T16:56:09.574Z,19.90
2023-05-06T16:58:37.232Z,19.90
2023-05-06T17:01:08.193Z,19.90
2023-05-06T17:03:37.964Z,19.90
2023-05-06T17:06:05.243Z,19.90
2023-05-06T17:08:36.117Z,19.80
2023-05-06T17:11:06.502Z,19.90
2023-05-06T17:13:33.813Z,19.90
2023-05-06T17:16:00.928Z,19.90
2023-05-06T17:18:27.851Z,19.90
2023-05-06T17:20:57.024Z,19.90
2023-05-06T17:23:24.868Z,19.90
2023-05-06T17:25:51.802Z,19.90
2023-05-06T17:28:19.121Z,19.90
2023-05-06T17:30:47.579Z,19.80
2023-05-06T17:33:14.511Z,19.90
2023-05-06T17:35:41.456Z,19.80
2023-05-06T17:38:11.197Z,19.90
2023-05-06T17:40:38.250Z,19.90
2023-05-06T17:43:07.372Z,19.90
2023-05-06T17:45:34.400Z,19.90
2023-05-06T17:48:02.534Z,19.90
2023-05-06T17:50:31.904Z,19.90
2023-05-06T17:52:59.788Z,19.90
2023-05-06T17:55:26.936Z,19.90
2023-05-06T17:57:54.174Z,19.90
2023-05-06T18:00:22.266Z,19.90
2023-05-06T18:02:49.293Z,19.90
2023-05-06T18:05:19.681Z,19.90
2023-05-06T18:07:46.919Z,19.90
2023-05-06T18:10:14.238Z,19.90
2023-05-06T18:12:42.356Z,19.90
2023-05-06T18:15:14.356Z,19.90
2023-05-06T18:17:41.358Z,19.90
2023-05-06T18:20:18.752Z,19.90
2023-05-06T18:22:46.680Z,19.90
2023-05-06T18:25:13.859Z,19.90
2023-05-06T18:27:41.010Z,19.90
2023-05-06T18:30:08.859Z,19.90
2023-05-06T18:35:24.083Z,19.90
2023-05-06T18:37:51.191Z,19.90
2023-05-06T18:40:18.577Z,19.90
2023-05-06T18:42:47.642Z,19.90
2023-05-06T18:45:15.135Z,19.90
2023-05-06T18:47:42.048Z,19.90
2023-05-06T18:50:10.674Z,19.90
2023-05-06T18:52:41.006Z,19.90
2023-05-06T18:55:09.016Z,19.90
2023-05-06T18:57:38.631Z,19.90
2023-05-06T19:00:09.351Z,19.90
2023-05-06T19:02:37.328Z,19.90
2023-05-06T19:05:06.538Z,19.90
2023-05-06T19:07:33.402Z,19.90
2023-05-06T19:10:01.252Z,19.90
2023-05-06T19:12:31.276Z,19.90
2023-05-06T19:14:58.403Z,19.90
2023-05-06T19:17:25.420Z,19.90
2023-05-06T19:19:52.540Z,19.90
2023-05-06T19:22:22.303Z,19.90
2023-05-06T19:24:51.764Z,19.90
2023-05-06T19:27:18.626Z,19.90
2023-05-06T19:29:45.492Z,19.90
2023-05-06T19:32:13.736Z,19.90
2023-05-06T19:34:42.061Z,19.90
2023-05-06T19:37:10.066Z,19.90
2023-05-06T19:39:38.368Z,19.90
2023-05-06T19:42:10.689Z,19.90
2023-05-06T19:44:37.620Z,19.90
2023-05-06T19:47:06.876Z,19.90
2023-05-06T19:49:33.790Z,19.90
2023-05-06T19:52:03.165Z,19.90
2023-05-06T19:54:38.526Z,19.90
2023-05-06T19:57:14.122Z,19.90
2023-05-06T19:59:47.142Z,19.90
2023-05-06T20:02:18.095Z,19.90
2023-05-06T20:04:54.164Z,19.90
2023-05-06T20:07:23.003Z,19.90
2023-05-06T20:10:02.262Z,19.90
2023-05-06T20:12:37.509Z,19.90
2023-05-06T20:15:04.781Z,19.90
2023-05-06T20:17:33.874Z,19.90
2023-05-06T20:20:04.281Z,19.90
2023-05-06T20:22:33.098Z,19.90
2023-05-06T20:25:16.708Z,19.90
2023-05-06T20:27:44.511Z,19.90
2023-05-06T20:30:11.528Z,19.90
2023-05-06T20:32:41.108Z,19.90
2023-05-06T20:35:10.996Z,19.90
2023-05-06T20:37:39.017Z,19.90
2023-05-06T20:40:08.954Z,19.90
2023-05-06T20:42:37.491Z,19.90
2023-05-06T20:45:04.929Z,19.90
2023-05-06T20:47:31.937Z,19.90
2023-05-06T20:50:00.007Z,19.90
2023-05-06T20:52:26.989Z,19.90
2023-05-06T20:54:54.710Z,19.90
2023-05-06T20:57:23.379Z,19.90
2023-05-06T20:59:51.855Z,19.90
2023-05-06T21:02:18.791Z,19.90
2023-05-06T21:04:46.265Z,19.90
2023-05-06T21:07:14.872Z,19.90
2023-05-06T21:09:41.752Z,19.90
2023-05-06T21:12:08.733Z,19.90
2023-05-06T21:14:35.585Z,19.90
2023-05-06T21:17:02.505Z,19.90
2023-05-06T21:19:30.607Z,19.90
2023-05-06T21:21:58.071Z,19.90
2023-05-06T21:24:24.959Z,19.90
2023-05-06T21:26:51.923Z,19.90
2023-05-06T21:29:18.823Z,19.90
2023-05-06T21:31:45.739Z,19.90
2023-05-06T21:34:12.743Z,19.90
2023-05-06T21:36:47.900Z,19.90
2023-05-06T21:39:16.862Z,20.00
2023-05-06T21:41:43.899Z,20.00
2023-05-06T21:44:11.800Z,20.00
2023-05-06T21:46:40.940Z,20.00
2023-05-06T21:49:10.609Z,20.10
2023-05-06T21:51:37.582Z,20.00
2023-05-06T21:54:04.590Z,20.00
2023-05-06T21:56:42.475Z,20.00
2023-05-06T21:59:09.450Z,20.00
2023-05-06T22:01:36.425Z,20.00
2023-05-06T22:04:13.096Z,20.00
2023-05-06T22:06:40.539Z,20.00
2023-05-06T22:09:09.897Z,20.00
2023-05-06T22:11:38.511Z,20.00
2023-05-06T22:14:06.878Z,20.00
2023-05-06T22:16:35.512Z,20.10
2023-05-06T22:19:04.044Z,20.10
2023-05-06T22:21:32.024Z,20.10
2023-05-06T22:23:59.169Z,20.00
2023-05-06T22:26:28.262Z,20.10
2023-05-06T22:28:59.603Z,20.20
2023-05-06T22:31:26.568Z,20.20
2023-05-06T22:33:57.898Z,20.20
2023-05-06T22:36:29.239Z,20.10
2023-05-06T22:38:56.536Z,20.10
2023-05-06T22:41:23.399Z,20.10
2023-05-06T22:43:52.940Z,20.00
2023-05-06T22:46:19.812Z,20.00
2023-05-06T22:48:47.097Z,20.00
2023-05-06T22:51:16.845Z,20.10
2023-05-06T22:53:43.880Z,20.10
2023-05-06T22:56:11.671Z,20.00
2023-05-06T22:58:38.608Z,20.00
2023-05-06T23:01:08.357Z,20.00
2023-05-06T23:03:36.111Z,20.00
2023-05-06T23:06:04.486Z,20.00
2023-05-06T23:08:31.565Z,20.00
2023-05-06T23:10:58.469Z,20.00
2023-05-06T23:13:26.845Z,20.00
2023-05-06T23:15:53.876Z,20.00
2023-05-06T23:18:20.932Z,20.00
2023-05-06T23:20:48.120Z,20.00
2023-05-06T23:23:15.017Z,20.10
2023-05-06T23:25:43.196Z,20.10
2023-05-06T23:28:10.085Z,20.10
2023-05-06T23:30:37.063Z,20.10
2023-05-06T23:33:05.087Z,20.10
2023-05-06T23:35:32.688Z,20.10
2023-05-06T23:38:00.914Z,20.10
2023-05-06T23:40:27.836Z,20.10
2023-05-06T23:42:54.750Z,20.10
2023-05-06T23:45:21.696Z,20.10
2023-05-06T23:47:48.666Z,20.10
2023-05-06T23:50:16.551Z,20.10
2023-05-06T23:52:43.450Z,20.10
2023-05-06T23:55:10.766Z,20.10
2023-05-06T23:57:37.977Z,20.10
